createdAt,value
2018-07-04T00:00:18.617Z,2.60
2018-07-04T00:01:18.547Z,2.70
2018-07-04T00:02:18.505Z,2.70
2018-07-04T00:03:18.457Z,2.50
2018-07-04T00:04:18.411Z,2.70
2018-07-04T00:05:18.393Z,2.50
2018-07-04T00:06:18.316Z,2.50
2018-07-04T00:07:18.276Z,2.50
2018-07-04T00:08:18.225Z,2.10
2018-07-04T00:09:18.181Z,2.70
2018-07-04T00:10:18.162Z,2.50
2018-07-04T00:11:18.089Z,2.30
2018-07-04T00:12:18.049Z,2.70
2018-07-04T00:13:17.995Z,2.70
2018-07-04T00:14:17.948Z,2.40
2018-07-04T00:15:17.926Z,2.70
2018-07-04T00:16:17.855Z,2.50
2018-07-04T00:17:17.807Z,2.80
2018-07-04T00:18:17.760Z,2.60
2018-07-04T00:19:17.721Z,2.50
2018-07-04T00:20:17.670Z,2.60
2018-07-04T00:21:17.639Z,2.40
2018-07-04T00:22:17.573Z,2.50
2018-07-04T00:23:17.528Z,2.60
2018-07-04T00:24:17.477Z,2.80
2018-07-04T00:25:17.435Z,2.70
2018-07-04T00:26:17.413Z,2.40
2018-07-04T00:27:17.339Z,2.60
2018-07-04T00:28:17.301Z,2.70
2018-07-04T00:29:17.247Z,2.20
2018-07-04T00:30:17.200Z,2.20
2018-07-04T00:31:17.222Z,2.40
2018-07-04T00:32:17.109Z,2.50
2018-07-04T00:33:17.060Z,2.50
2018-07-04T00:34:17.013Z,2.40
2018-07-04T00:35:16.970Z,2.30
2018-07-04T00:36:16.947Z,2.50
2018-07-04T00:37:16.877Z,2.30
2018-07-04T00:38:16.825Z,2.30
2018-07-04T00:39:16.780Z,2.60
2018-07-04T00:40:16.736Z,2.40
2018-07-04T00:41:16.724Z,2.40
2018-07-04T00:42:16.642Z,2.30
2018-07-04T00:43:16.595Z,2.40
2018-07-04T00:44:16.549Z,2.20
2018-07-04T00:45:16.503Z,2.20
2018-07-04T00:46:16.453Z,2.30
2018-07-04T00:47:16.441Z,2.40
2018-07-04T00:48:16.364Z,2.60
2018-07-04T00:49:16.313Z,2.30
2018-07-04T00:50:16.268Z,2.20
2018-07-04T00:51:16.222Z,2.20
2018-07-04T00:52:16.193Z,2.10
2018-07-04T00:53:16.127Z,2.20
2018-07-04T00:54:16.079Z,2.50
2018-07-04T00:55:16.032Z,2.30
2018-07-04T00:56:15.997Z,2.80
2018-07-04T00:57:15.961Z,2.60
2018-07-04T00:58:15.894Z,2.70
2018-07-04T00:59:15.847Z,2.30
2018-07-04T01:00:15.802Z,2.40
2018-07-04T01:01:15.758Z,2.60
2018-07-04T01:02:15.732Z,2.60
2018-07-04T01:03:15.661Z,2.50
2018-07-04T01:04:15.618Z,2.40
2018-07-04T01:05:15.569Z,2.80
2018-07-04T01:06:15.522Z,2.80
2018-07-04T01:07:15.503Z,2.60
2018-07-04T01:08:15.426Z,2.70
2018-07-04T01:09:15.381Z,2.50
2018-07-04T01:10:15.339Z,2.50
2018-07-04T01:11:15.287Z,2.40
2018-07-04T01:12:15.242Z,2.50
2018-07-04T01:13:15.221Z,2.50
2018-07-04T01:14:15.149Z,2.90
2018-07-04T01:15:15.110Z,2.90
2018-07-04T01:16:15.052Z,2.30
2018-07-04T01:17:15.009Z,2.50
2018-07-04T01:18:14.982Z,2.30
2018-07-04T01:19:14.911Z,2.30
2018-07-04T01:20:14.875Z,2.50
2018-07-04T01:21:14.821Z,2.80
2018-07-04T01:22:14.773Z,2.30
2018-07-04T01:23:14.753Z,2.50
2018-07-04T01:24:14.684Z,2.60
2018-07-04T01:25:14.636Z,2.50
2018-07-04T01:26:14.586Z,2.50
2018-07-04T01:27:14.538Z,2.50
2018-07-04T01:28:14.522Z,2.40
2018-07-04T01:29:14.446Z,2.30
2018-07-04T01:30:14.400Z,2.40
2018-07-04T01:31:14.357Z,2.10
2018-07-04T01:32:14.308Z,2.40
2018-07-04T01:33:14.283Z,2.20
2018-07-04T01:34:14.214Z,2.80
2018-07-04T01:35:14.167Z,2.40
2018-07-04T01:36:14.126Z,2.40
2018-07-04T01:37:14.074Z,2.50
2018-07-04T01:38:14.054Z,2.50
2018-07-04T01:39:13.983Z,2.70
2018-07-04T01:40:13.933Z,2.60
2018-07-04T01:41:13.888Z,2.40
2018-07-04T01:42:13.852Z,2.50
2018-07-04T01:43:13.820Z,2.60
2018-07-04T01:44:13.747Z,2.50
2018-07-04T01:45:13.699Z,2.60
2018-07-04T01:46:13.656Z,2.60
2018-07-04T01:47:13.607Z,2.50
2018-07-04T01:48:13.582Z,2.50
2018-07-04T01:49:13.521Z,3.00
2018-07-04T01:50:13.471Z,2.30
2018-07-04T01:51:13.418Z,2.60
2018-07-04T01:52:13.378Z,2.60
2018-07-04T01:53:13.356Z,2.50
2018-07-04T01:54:13.281Z,2.30
2018-07-04T01:55:13.233Z,2.50
2018-07-04T01:56:13.187Z,2.50
2018-07-04T01:57:13.154Z,2.40
2018-07-04T01:58:13.093Z,2.30
2018-07-04T01:59:13.076Z,2.40
2018-07-04T02:00:13.004Z,2.60
2018-07-04T02:01:12.954Z,2.40
2018-07-04T02:02:12.905Z,2.60
2018-07-04T02:03:12.865Z,2.40
2018-07-04T02:04:12.837Z,2.50
2018-07-04T02:05:12.769Z,2.30
2018-07-04T02:06:12.722Z,2.60
2018-07-04T02:07:19.744Z,2.40
2018-07-04T02:08:12.629Z,2.40
2018-07-04T02:09:12.607Z,2.60
2018-07-04T02:10:12.534Z,2.40
2018-07-04T02:11:12.486Z,2.50
2018-07-04T02:12:12.446Z,2.60
2018-07-04T02:13:12.392Z,2.30
2018-07-04T02:14:12.368Z,2.40
2018-07-04T02:15:12.297Z,2.50
2018-07-04T02:16:12.254Z,2.80
2018-07-04T02:17:12.206Z,2.60
2018-07-04T02:18:12.156Z,2.40
2018-07-04T02:19:12.154Z,2.60
2018-07-04T02:20:12.065Z,2.80
2018-07-04T02:21:12.021Z,2.80
2018-07-04T02:22:11.980Z,2.70
2018-07-04T02:23:11.922Z,2.30
2018-07-04T02:24:11.878Z,2.50
2018-07-04T02:25:11.853Z,2.50
2018-07-04T02:26:11.784Z,2.70
2018-07-04T02:27:11.738Z,2.70
2018-07-04T02:28:11.690Z,2.40
2018-07-04T02:29:11.647Z,2.50
2018-07-04T02:30:11.622Z,2.40
2018-07-04T02:31:11.554Z,2.30
2018-07-04T02:32:11.502Z,2.50
2018-07-04T02:33:11.459Z,2.40
2018-07-04T02:34:11.409Z,2.70
2018-07-04T02:35:11.384Z,2.60
2018-07-04T02:36:11.316Z,2.80
2018-07-04T02:37:11.270Z,2.40
2018-07-04T02:38:11.223Z,2.40
2018-07-04T02:39:11.173Z,2.60
2018-07-04T02:40:11.150Z,2.70
2018-07-04T02:41:11.084Z,2.60
2018-07-04T02:42:11.035Z,2.70
2018-07-04T02:43:10.990Z,2.60
2018-07-04T02:44:10.947Z,2.70
2018-07-04T02:45:10.917Z,2.50
2018-07-04T02:46:10.851Z,2.60
2018-07-04T02:47:10.798Z,2.40
2018-07-04T02:48:10.757Z,2.80
2018-07-04T02:49:10.710Z,2.60
2018-07-04T02:50:10.689Z,2.70
2018-07-04T02:51:10.612Z,2.90
2018-07-04T02:52:10.570Z,2.70
2018-07-04T02:53:10.529Z,2.70
2018-07-04T02:54:10.473Z,2.60
2018-07-04T02:55:10.466Z,2.30
2018-07-04T02:56:10.382Z,2.60
2018-07-04T02:57:10.335Z,2.70
2018-07-04T02:58:10.283Z,2.70
2018-07-04T02:59:10.242Z,2.80
2018-07-04T03:00:10.192Z,2.90
2018-07-04T03:01:10.167Z,2.70
2018-07-04T03:02:10.102Z,2.60
2018-07-04T03:03:10.055Z,2.70
2018-07-04T03:04:10.006Z,2.70
2018-07-04T03:05:09.960Z,2.50
2018-07-04T03:06:09.995Z,2.60
2018-07-04T03:07:09.866Z,2.60
2018-07-04T03:08:09.817Z,2.70
2018-07-04T03:09:09.770Z,2.90
2018-07-04T03:10:09.721Z,2.70
2018-07-04T03:11:09.701Z,2.60
2018-07-04T03:12:09.629Z,2.90
2018-07-04T03:13:09.580Z,2.60
2018-07-04T03:14:09.536Z,2.40
2018-07-04T03:15:09.486Z,2.80
2018-07-04T03:16:09.464Z,2.60
2018-07-04T03:17:09.393Z,2.70
2018-07-04T03:18:09.349Z,2.80
2018-07-04T03:19:09.308Z,2.60
2018-07-04T03:20:09.254Z,2.70
2018-07-04T03:21:09.233Z,2.70
2018-07-04T03:22:09.166Z,2.60
2018-07-04T03:23:09.113Z,2.50
2018-07-04T03:24:09.068Z,2.70
2018-07-04T03:25:09.020Z,3.00
2018-07-04T03:26:09.008Z,2.60
2018-07-04T03:27:08.928Z,2.60
2018-07-04T03:28:08.882Z,2.80
2018-07-04T03:29:08.832Z,2.80
2018-07-04T03:30:08.786Z,2.70
2018-07-04T03:31:08.777Z,2.50
2018-07-04T03:32:08.695Z,2.60
2018-07-04T03:33:08.645Z,2.30
2018-07-04T03:34:08.597Z,2.60
2018-07-04T03:35:08.551Z,2.50
2018-07-04T03:36:08.504Z,2.30
2018-07-04T03:37:08.480Z,2.50
2018-07-04T03:38:15.528Z,2.50
2018-07-04T03:39:08.368Z,2.50
2018-07-04T03:40:08.321Z,2.50
2018-07-04T03:41:08.267Z,2.60
2018-07-04T03:42:08.246Z,2.70
2018-07-04T03:43:08.173Z,2.40
2018-07-04T03:44:08.126Z,2.70
2018-07-04T03:45:08.082Z,2.60
2018-07-04T03:46:08.034Z,2.40
2018-07-04T03:47:08.008Z,2.60
2018-07-04T03:48:07.939Z,2.80
2018-07-04T03:49:07.896Z,2.50
2018-07-04T03:50:07.850Z,2.30
2018-07-04T03:51:07.796Z,2.80
2018-07-04T03:52:07.775Z,2.90
2018-07-04T03:53:07.706Z,2.40
2018-07-04T03:54:07.658Z,2.60
2018-07-04T03:55:07.609Z,2.60
2018-07-04T03:56:07.568Z,2.50
2018-07-04T03:57:07.545Z,2.50
2018-07-04T03:58:07.522Z,2.50
2018-07-04T03:59:07.422Z,2.70
2018-07-04T04:00:07.376Z,2.60
2018-07-04T04:01:07.331Z,2.80
2018-07-04T04:02:07.310Z,2.50
2018-07-04T04:03:07.234Z,2.40
2018-07-04T04:04:07.191Z,2.50
2018-07-04T04:05:07.141Z,2.70
2018-07-04T04:06:07.096Z,2.30
2018-07-04T04:07:07.071Z,2.50
2018-07-04T04:08:06.999Z,2.60
2018-07-04T04:09:06.957Z,2.50
2018-07-04T04:10:06.905Z,2.80
2018-07-04T04:11:06.859Z,2.70
2018-07-04T04:12:06.839Z,2.60
2018-07-04T04:13:06.770Z,2.60
2018-07-04T04:14:06.720Z,2.70
2018-07-04T04:15:06.673Z,2.80
2018-07-04T04:16:06.623Z,2.60
2018-07-04T04:17:06.619Z,2.70
2018-07-04T04:18:06.532Z,2.60
2018-07-04T04:19:06.484Z,2.60
2018-07-04T04:20:06.441Z,2.70
2018-07-04T04:21:06.392Z,2.20
2018-07-04T04:22:06.344Z,2.50
2018-07-04T04:23:06.327Z,2.60
2018-07-04T04:24:06.252Z,2.70
2018-07-04T04:25:06.210Z,2.40
2018-07-04T04:26:06.158Z,2.60
2018-07-04T04:27:06.159Z,2.60
2018-07-04T04:28:06.089Z,2.50
2018-07-04T04:29:06.020Z,2.60
2018-07-04T04:30:05.971Z,2.40
2018-07-04T04:31:05.927Z,2.70
2018-07-04T04:32:05.883Z,2.30
2018-07-04T04:33:05.859Z,2.20
2018-07-04T04:34:05.791Z,2.60
2018-07-04T04:35:05.740Z,2.40
2018-07-04T04:36:05.692Z,2.50
2018-07-04T04:37:05.645Z,2.20
2018-07-04T04:38:05.627Z,2.30
2018-07-04T04:39:05.561Z,2.20
2018-07-04T04:40:05.510Z,2.30
2018-07-04T04:41:05.464Z,2.40
2018-07-04T04:42:05.415Z,2.40
2018-07-04T04:43:05.390Z,2.60
2018-07-04T04:44:05.330Z,2.30
2018-07-04T04:45:05.281Z,2.50
2018-07-04T04:46:05.240Z,2.40
2018-07-04T04:47:05.190Z,2.30
2018-07-04T04:48:05.161Z,2.30
2018-07-04T04:49:05.097Z,2.20
2018-07-04T04:50:05.052Z,2.60
2018-07-04T04:51:05.003Z,2.20
2018-07-04T04:52:04.954Z,2.40
2018-07-04T04:53:04.937Z,2.20
2018-07-04T04:54:04.864Z,2.30
2018-07-04T04:55:04.814Z,2.10
2018-07-04T04:56:04.773Z,2.10
2018-07-04T04:57:04.726Z,2.10
2018-07-04T04:58:04.702Z,2.30
2018-07-04T04:59:04.637Z,2.20
2018-07-04T05:00:04.588Z,2.40
2018-07-04T05:01:04.547Z,2.20
2018-07-04T05:02:04.501Z,2.50
2018-07-04T05:03:04.494Z,2.70
2018-07-04T05:04:04.405Z,2.30
2018-07-04T05:05:04.361Z,2.30
2018-07-04T05:06:04.315Z,2.40
2018-07-04T05:07:04.274Z,2.30
2018-07-04T05:08:04.225Z,2.40
2018-07-04T05:09:04.202Z,2.30
2018-07-04T05:10:04.133Z,2.20
2018-07-04T05:11:04.085Z,2.30
2018-07-04T05:12:04.040Z,2.10
2018-07-04T05:13:03.999Z,1.90
2018-07-04T05:14:03.977Z,2.20
2018-07-04T05:15:03.906Z,2.00
2018-07-04T05:16:03.858Z,2.00
2018-07-04T05:17:03.816Z,2.20
2018-07-04T05:18:03.770Z,2.00
2018-07-04T05:19:03.743Z,2.20
2018-07-04T05:20:03.681Z,2.10
2018-07-04T05:21:03.638Z,2.30
2018-07-04T05:22:03.587Z,2.10
2018-07-04T05:23:03.542Z,2.00
2018-07-04T05:24:03.523Z,2.20
2018-07-04T05:25:03.453Z,2.10
2018-07-04T05:26:03.409Z,2.30
2018-07-04T05:27:03.364Z,2.30
2018-07-04T05:28:03.318Z,2.20
2018-07-04T05:29:03.297Z,2.10
2018-07-04T05:30:03.233Z,2.10
2018-07-04T05:31:03.184Z,2.10
2018-07-04T05:32:03.141Z,1.90
2018-07-04T05:33:03.093Z,1.80
2018-07-04T05:34:03.070Z,2.00
2018-07-04T05:35:03.059Z,2.10
2018-07-04T05:36:02.966Z,2.10
2018-07-04T05:37:02.915Z,2.20
2018-07-04T05:38:02.878Z,2.00
2018-07-04T05:39:02.853Z,1.90
2018-07-04T05:40:02.788Z,2.10
2018-07-04T05:41:02.745Z,2.70
2018-07-04T05:42:02.696Z,1.90
2018-07-04T05:43:02.653Z,2.20
2018-07-04T05:44:02.626Z,1.90
2018-07-04T05:45:02.559Z,2.00
2018-07-04T05:46:02.530Z,2.10
2018-07-04T05:47:02.471Z,2.00
2018-07-04T05:48:02.430Z,2.20
2018-07-04T05:49:02.411Z,2.10
2018-07-04T05:50:02.341Z,2.20
2018-07-04T05:51:02.294Z,2.00
2018-07-04T05:52:02.257Z,2.20
2018-07-04T05:53:02.210Z,2.20
2018-07-04T05:54:02.204Z,2.00
2018-07-04T05:55:02.117Z,2.10
2018-07-04T05:56:02.079Z,1.80
2018-07-04T05:57:02.039Z,2.00
2018-07-04T05:58:01.988Z,2.10
2018-07-04T05:59:01.943Z,2.00
2018-07-04T06:00:01.924Z,2.30
2018-07-04T06:01:01.854Z,2.10
2018-07-04T06:02:01.815Z,2.00
2018-07-04T06:03:01.770Z,2.10
2018-07-04T06:04:01.725Z,1.70
2018-07-04T06:05:01.708Z,2.10
2018-07-04T06:06:01.639Z,1.90
2018-07-04T06:07:01.593Z,2.10
2018-07-04T06:08:01.550Z,2.20
2018-07-04T06:09:08.552Z,1.90
2018-07-04T06:10:01.485Z,2.10
2018-07-04T06:11:01.421Z,1.90
2018-07-04T06:12:01.374Z,2.00
2018-07-04T06:13:01.335Z,2.10
2018-07-04T06:14:01.288Z,2.00
2018-07-04T06:15:01.304Z,2.20
2018-07-04T06:16:01.201Z,2.00
2018-07-04T06:17:01.176Z,1.90
2018-07-04T06:18:01.111Z,2.10
2018-07-04T06:19:01.069Z,2.10
2018-07-04T06:20:01.051Z,2.20
2018-07-04T06:21:00.979Z,2.20
2018-07-04T06:22:00.942Z,2.30
2018-07-04T06:23:00.894Z,2.20
2018-07-04T06:24:00.858Z,1.90
2018-07-04T06:25:00.830Z,2.10
2018-07-04T06:26:00.768Z,2.10
2018-07-04T06:27:00.716Z,2.10
2018-07-04T06:28:00.676Z,2.30
2018-07-04T06:29:00.631Z,2.30
2018-07-04T06:30:00.618Z,2.10
2018-07-04T06:31:00.552Z,2.10
2018-07-04T06:32:00.504Z,2.00
2018-07-04T06:33:00.464Z,2.10
2018-07-04T06:34:00.416Z,2.40
2018-07-04T06:35:00.396Z,2.40
2018-07-04T06:36:00.330Z,2.30
2018-07-04T06:37:00.292Z,2.10
2018-07-04T06:38:00.247Z,2.10
2018-07-04T06:39:00.200Z,2.30
2018-07-04T06:40:00.187Z,2.30
2018-07-04T06:41:00.114Z,2.40
2018-07-04T06:42:00.074Z,2.00
2018-07-04T06:43:00.031Z,2.20
2018-07-04T06:43:59.984Z,2.60
2018-07-04T06:44:59.969Z,3.20
2018-07-04T06:45:59.897Z,2.80
2018-07-04T06:46:59.856Z,2.60
2018-07-04T06:47:59.816Z,2.30
2018-07-04T06:48:59.843Z,2.10
2018-07-04T06:49:59.728Z,2.20
2018-07-04T06:50:59.711Z,2.10
2018-07-04T06:51:59.648Z,2.20
2018-07-04T06:52:59.599Z,2.20
2018-07-04T06:53:59.557Z,2.10
2018-07-04T06:54:59.518Z,2.40
2018-07-04T06:55:59.499Z,2.30
2018-07-04T06:56:59.429Z,2.40
2018-07-04T06:57:59.391Z,2.60
2018-07-04T06:58:59.349Z,2.30
2018-07-04T06:59:59.349Z,2.20
2018-07-04T07:00:59.308Z,2.50
2018-07-04T07:01:59.290Z,2.30
2018-07-04T07:02:59.178Z,2.40
2018-07-04T07:03:59.130Z,2.50
2018-07-04T07:04:59.090Z,2.30
2018-07-04T07:05:59.070Z,2.40
2018-07-04T07:06:59.003Z,2.40
2018-07-04T07:07:58.963Z,2.50
2018-07-04T07:08:58.922Z,2.50
2018-07-04T07:09:58.878Z,2.50
2018-07-04T07:10:58.859Z,2.60
2018-07-04T07:11:58.798Z,2.50
2018-07-04T07:12:58.751Z,2.30
2018-07-04T07:13:58.710Z,2.40
2018-07-04T07:14:58.659Z,2.60
2018-07-04T07:15:58.649Z,2.40
2018-07-04T07:16:58.580Z,2.30
2018-07-04T07:17:58.538Z,2.50
2018-07-04T07:18:58.493Z,2.60
2018-07-04T07:19:58.456Z,2.40
2018-07-04T07:20:58.432Z,2.30
2018-07-04T07:21:58.368Z,2.40
2018-07-04T07:22:58.323Z,2.30
2018-07-04T07:23:58.285Z,2.50
2018-07-04T07:24:58.241Z,2.40
2018-07-04T07:25:58.228Z,2.40
2018-07-04T07:26:58.159Z,2.20
2018-07-04T07:27:58.112Z,2.40
2018-07-04T07:28:58.074Z,2.50
2018-07-04T07:29:58.028Z,2.10
2018-07-04T07:30:57.987Z,2.30
2018-07-04T07:31:57.974Z,2.20
2018-07-04T07:32:57.904Z,2.20
2018-07-04T07:33:57.897Z,2.10
2018-07-04T07:34:57.816Z,2.10
2018-07-04T07:35:57.773Z,2.00
2018-07-04T07:36:57.757Z,2.10
2018-07-04T07:37:57.687Z,2.20
2018-07-04T07:38:57.649Z,2.20
2018-07-04T07:39:57.606Z,1.90
2018-07-04T07:40:57.568Z,2.10
2018-07-04T07:41:57.599Z,2.10
2018-07-04T07:42:57.484Z,2.10
2018-07-04T07:43:57.440Z,2.10
2018-07-04T07:44:57.400Z,2.00
2018-07-04T07:45:57.359Z,1.90
2018-07-04T07:46:57.336Z,2.20
2018-07-04T07:47:57.273Z,2.00
2018-07-04T07:48:57.231Z,2.20
2018-07-04T07:49:57.190Z,2.00
2018-07-04T07:50:57.148Z,2.00
2018-07-04T07:51:57.151Z,2.00
2018-07-04T07:52:57.065Z,2.10
2018-07-04T07:53:57.024Z,2.20
2018-07-04T07:54:56.984Z,2.10
2018-07-04T07:55:56.942Z,2.40
2018-07-04T07:56:56.902Z,2.10
2018-07-04T07:57:56.879Z,2.00
2018-07-04T07:58:56.815Z,2.00
2018-07-04T07:59:56.774Z,1.80
2018-07-04T08:00:56.737Z,1.80
2018-07-04T08:01:56.757Z,2.20
2018-07-04T08:02:56.676Z,2.10
2018-07-04T08:03:56.609Z,2.00
2018-07-04T08:04:56.568Z,2.00
2018-07-04T08:05:56.600Z,2.20
2018-07-04T08:06:56.506Z,2.10
2018-07-04T08:07:56.466Z,2.00
2018-07-04T08:08:56.404Z,1.80
2018-07-04T08:09:56.370Z,2.00
2018-07-04T08:10:56.321Z,2.00
2018-07-04T08:11:56.281Z,2.10
2018-07-04T08:12:56.272Z,2.00
2018-07-04T08:13:56.200Z,2.00
2018-07-04T08:14:56.157Z,2.00
2018-07-04T08:15:56.116Z,2.10
2018-07-04T08:16:56.078Z,2.20
2018-07-04T08:17:56.035Z,2.10
2018-07-04T08:18:56.017Z,2.10
2018-07-04T08:19:55.957Z,2.10
2018-07-04T08:20:55.913Z,2.00
2018-07-04T08:21:55.869Z,2.00
2018-07-04T08:22:55.833Z,2.00
2018-07-04T08:23:55.813Z,1.90
2018-07-04T08:24:55.750Z,2.10
2018-07-04T08:25:55.711Z,2.00
2018-07-04T08:26:55.670Z,1.90
2018-07-04T08:27:55.627Z,2.20
2018-07-04T08:28:55.612Z,2.10
2018-07-04T08:29:55.545Z,2.10
2018-07-04T08:30:55.503Z,2.00
2018-07-04T08:31:55.532Z,2.00
2018-07-04T08:32:55.427Z,1.90
2018-07-04T08:33:55.408Z,1.80
2018-07-04T08:34:55.348Z,1.90
2018-07-04T08:35:55.304Z,2.10
2018-07-04T08:36:55.260Z,1.90
2018-07-04T08:37:55.219Z,2.20
2018-07-04T08:38:55.247Z,2.00
2018-07-04T08:39:55.142Z,2.10
2018-07-04T08:40:55.103Z,2.00
2018-07-04T08:41:55.063Z,1.80
2018-07-04T08:42:55.020Z,1.80
2018-07-04T08:43:55.001Z,1.80
2018-07-04T08:44:54.946Z,1.60
2018-07-04T08:45:54.901Z,1.70
2018-07-04T08:46:54.858Z,1.90
2018-07-04T08:47:54.828Z,1.80
2018-07-04T08:48:54.807Z,1.70
2018-07-04T08:49:54.750Z,1.90
2018-07-04T08:50:54.706Z,1.80
2018-07-04T08:51:54.654Z,1.80
2018-07-04T08:52:54.677Z,2.00
2018-07-04T08:53:54.613Z,2.00
2018-07-04T08:54:54.536Z,1.90
2018-07-04T08:55:54.497Z,1.90
2018-07-04T08:56:54.456Z,1.70
2018-07-04T08:57:54.410Z,2.10
2018-07-04T08:58:54.421Z,2.00
2018-07-04T08:59:54.332Z,1.90
2018-07-04T09:00:54.294Z,1.80
2018-07-04T09:01:54.256Z,2.00
2018-07-04T09:02:54.215Z,1.90
2018-07-04T09:03:54.169Z,2.20
2018-07-04T09:04:54.152Z,2.10
2018-07-04T09:05:54.096Z,1.90
2018-07-04T09:06:54.049Z,1.90
2018-07-04T09:07:54.009Z,2.20
2018-07-04T09:08:53.978Z,1.80
2018-07-04T09:09:53.950Z,2.10
2018-07-04T09:10:53.888Z,1.80
2018-07-04T09:11:53.938Z,1.90
2018-07-04T09:12:53.807Z,2.00
2018-07-04T09:13:53.770Z,2.00
2018-07-04T09:14:53.747Z,1.90
2018-07-04T09:15:53.690Z,2.30
2018-07-04T09:16:53.648Z,2.10
2018-07-04T09:17:53.611Z,2.10
2018-07-04T09:18:53.569Z,2.00
2018-07-04T09:19:53.553Z,2.00
2018-07-04T09:20:53.486Z,2.00
2018-07-04T09:21:53.444Z,2.10
2018-07-04T09:22:53.408Z,2.00
2018-07-04T09:23:53.367Z,2.10
2018-07-04T09:24:53.353Z,1.90
2018-07-04T09:25:53.285Z,1.90
2018-07-04T09:26:53.248Z,2.00
2018-07-04T09:27:53.204Z,1.80
2018-07-04T09:28:53.165Z,2.00
2018-07-04T09:29:53.148Z,1.90
2018-07-04T09:30:53.086Z,1.90
2018-07-04T09:31:53.047Z,1.90
2018-07-04T09:32:53.010Z,2.00
2018-07-04T09:33:52.972Z,2.10
2018-07-04T09:34:52.959Z,1.80
2018-07-04T09:35:52.892Z,1.90
2018-07-04T09:36:52.848Z,2.00
2018-07-04T09:37:52.809Z,1.90
2018-07-04T09:38:52.765Z,1.90
2018-07-04T09:39:52.730Z,2.10
2018-07-04T09:40:52.713Z,1.90
2018-07-04T09:41:52.654Z,2.00
2018-07-04T09:42:52.613Z,1.90
2018-07-04T09:43:52.650Z,2.00
2018-07-04T09:44:52.532Z,2.10
2018-07-04T09:45:52.521Z,2.00
2018-07-04T09:46:52.460Z,2.00
2018-07-04T09:47:52.441Z,1.80
2018-07-04T09:48:52.376Z,1.80
2018-07-04T09:49:52.336Z,2.10
2018-07-04T09:50:52.318Z,2.00
2018-07-04T09:51:52.257Z,2.10
2018-07-04T09:52:52.220Z,2.30
2018-07-04T09:53:52.178Z,1.90
2018-07-04T09:54:52.138Z,1.80
2018-07-04T09:55:52.125Z,1.90
2018-07-04T09:56:52.059Z,1.90
2018-07-04T09:57:52.027Z,2.00
2018-07-04T09:58:52.020Z,1.90
2018-07-04T09:59:51.942Z,2.10
2018-07-04T10:00:51.929Z,2.10
2018-07-04T10:01:51.860Z,2.00
2018-07-04T10:02:51.820Z,2.10
2018-07-04T10:03:51.783Z,1.90
2018-07-04T10:04:51.742Z,2.00
2018-07-04T10:05:51.707Z,1.80
2018-07-04T10:06:51.688Z,2.00
2018-07-04T10:07:51.624Z,2.20
2018-07-04T10:08:51.581Z,2.10
2018-07-04T10:09:51.546Z,1.90
2018-07-04T10:10:51.503Z,2.00
2018-07-04T10:11:51.484Z,2.00
2018-07-04T10:12:51.422Z,1.90
2018-07-04T10:13:51.385Z,2.00
2018-07-04T10:14:51.343Z,2.00
2018-07-04T10:15:51.301Z,1.80
2018-07-04T10:16:51.288Z,2.00
2018-07-04T10:17:51.225Z,1.90
2018-07-04T10:18:51.184Z,2.00
2018-07-04T10:19:51.144Z,1.90
2018-07-04T10:20:51.105Z,1.80
2018-07-04T10:21:51.088Z,2.10
2018-07-04T10:22:51.035Z,1.90
2018-07-04T10:23:50.984Z,2.00
2018-07-04T10:24:50.950Z,1.80
2018-07-04T10:25:50.903Z,1.70
2018-07-04T10:26:50.887Z,2.10
2018-07-04T10:27:50.829Z,1.90
2018-07-04T10:28:50.791Z,2.10
2018-07-04T10:29:50.750Z,2.10
2018-07-04T10:30:50.708Z,1.90
2018-07-04T10:31:50.691Z,2.10
2018-07-04T10:32:50.632Z,2.20
2018-07-04T10:33:50.590Z,2.10
2018-07-04T10:34:50.553Z,1.90
2018-07-04T10:35:50.511Z,2.00
2018-07-04T10:36:50.501Z,1.90
2018-07-04T10:37:50.452Z,2.10
2018-07-04T10:38:50.406Z,2.10
2018-07-04T10:39:50.359Z,2.00
2018-07-04T10:40:50.319Z,2.10
2018-07-04T10:41:50.320Z,1.80
2018-07-04T10:42:50.242Z,2.10
2018-07-04T10:43:50.204Z,2.10
2018-07-04T10:44:50.225Z,2.00
2018-07-04T10:45:50.126Z,2.10
2018-07-04T10:46:50.106Z,2.00
2018-07-04T10:47:50.046Z,2.30
2018-07-04T10:48:50.008Z,2.50
2018-07-04T10:49:49.967Z,2.50
2018-07-04T10:50:49.935Z,2.30
2018-07-04T10:51:49.923Z,2.00
2018-07-04T10:52:49.869Z,2.00
2018-07-04T10:53:49.811Z,2.00
2018-07-04T10:54:49.777Z,2.30
2018-07-04T10:55:49.738Z,2.50
2018-07-04T10:56:49.722Z,2.30
2018-07-04T10:57:49.683Z,1.90
2018-07-04T10:58:49.620Z,1.90
2018-07-04T10:59:49.581Z,1.90
2018-07-04T11:00:49.541Z,1.90
2018-07-04T11:01:49.503Z,1.80
2018-07-04T11:02:49.487Z,2.00
2018-07-04T11:03:49.428Z,2.00
2018-07-04T11:04:49.389Z,1.80
2018-07-04T11:05:49.346Z,1.70
2018-07-04T11:06:49.308Z,1.80
2018-07-04T11:07:49.301Z,1.60
2018-07-04T11:08:49.232Z,1.70
2018-07-04T11:09:49.190Z,1.80
2018-07-04T11:10:49.152Z,1.70
2018-07-04T11:11:49.113Z,1.60
2018-07-04T11:12:49.107Z,1.70
2018-07-04T11:13:49.034Z,1.70
2018-07-04T11:14:48.997Z,1.70
2018-07-04T11:15:48.956Z,1.60
2018-07-04T11:16:49.004Z,1.60
2018-07-04T11:17:48.908Z,2.00
2018-07-04T11:18:48.847Z,1.70
2018-07-04T11:19:48.810Z,1.70
2018-07-04T11:20:48.766Z,1.80
2018-07-04T11:21:48.727Z,1.70
2018-07-04T11:22:48.717Z,1.60
2018-07-04T11:23:48.649Z,1.70
2018-07-04T11:24:48.614Z,2.10
2018-07-04T11:25:48.570Z,1.90
2018-07-04T11:26:48.534Z,1.80
2018-07-04T11:27:48.527Z,2.10
2018-07-04T11:28:48.459Z,2.20
2018-07-04T11:29:48.415Z,1.80
2018-07-04T11:30:48.378Z,1.80
2018-07-04T11:31:48.346Z,1.70
2018-07-04T11:32:48.324Z,1.70
2018-07-04T11:33:48.261Z,1.70
2018-07-04T11:34:48.219Z,1.70
2018-07-04T11:35:48.183Z,1.70
2018-07-04T11:36:48.147Z,1.70
2018-07-04T11:37:48.149Z,2.00
2018-07-04T11:38:48.065Z,1.90
2018-07-04T11:39:48.027Z,1.80
2018-07-04T11:40:47.993Z,1.90
2018-07-04T11:41:47.950Z,1.90
2018-07-04T11:42:47.917Z,1.80
2018-07-04T11:43:47.888Z,1.80
2018-07-04T11:44:47.829Z,2.00
2018-07-04T11:45:47.796Z,2.10
2018-07-04T11:46:47.753Z,2.20
2018-07-04T11:47:47.717Z,2.10
2018-07-04T11:48:47.701Z,1.60
2018-07-04T11:49:47.637Z,1.90
2018-07-04T11:50:47.599Z,2.00
2018-07-04T11:51:47.557Z,2.30
2018-07-04T11:52:47.518Z,1.90
2018-07-04T11:53:47.501Z,2.10
2018-07-04T11:54:47.440Z,2.10
2018-07-04T11:55:47.403Z,2.00
2018-07-04T11:56:47.362Z,2.20
2018-07-04T11:57:47.323Z,2.00
2018-07-04T11:58:47.307Z,2.20
2018-07-04T11:59:47.245Z,2.50
2018-07-04T12:00:47.206Z,2.30
2018-07-04T12:01:47.182Z,2.40
2018-07-04T12:02:47.132Z,2.50
2018-07-04T12:03:47.131Z,2.70
2018-07-04T12:04:47.049Z,2.50
2018-07-04T12:05:47.010Z,2.40
2018-07-04T12:06:46.971Z,2.70
2018-07-04T12:07:46.935Z,2.90
2018-07-04T12:08:46.923Z,2.40
2018-07-04T12:09:46.859Z,2.60
2018-07-04T12:10:46.816Z,2.30
2018-07-04T12:11:46.776Z,2.60
2018-07-04T12:12:46.734Z,2.30
2018-07-04T12:13:46.719Z,2.40
2018-07-04T12:14:46.660Z,2.60
2018-07-04T12:15:46.616Z,2.70
2018-07-04T12:16:46.575Z,3.20
2018-07-04T12:17:46.537Z,2.90
2018-07-04T12:18:46.525Z,2.70
2018-07-04T12:19:46.459Z,2.50
2018-07-04T12:20:46.420Z,2.70
2018-07-04T12:21:46.378Z,2.90
2018-07-04T12:22:46.343Z,3.10
2018-07-04T12:23:46.333Z,2.60
2018-07-04T12:24:46.267Z,2.40
2018-07-04T12:25:46.221Z,2.60
2018-07-04T12:26:46.315Z,2.70
2018-07-04T12:27:46.141Z,2.40
2018-07-04T12:28:46.107Z,2.50
2018-07-04T12:29:46.089Z,2.90
2018-07-04T12:30:46.029Z,3.10
2018-07-04T12:31:45.988Z,2.40
2018-07-04T12:32:45.948Z,2.80
2018-07-04T12:33:45.915Z,2.70
2018-07-04T12:34:45.899Z,2.60
2018-07-04T12:35:45.833Z,2.70
2018-07-04T12:36:45.792Z,2.60
2018-07-04T12:37:45.751Z,2.50
2018-07-04T12:38:45.714Z,2.90
2018-07-04T12:39:45.697Z,2.50
2018-07-04T12:40:45.634Z,2.80
2018-07-04T12:41:45.593Z,2.60
2018-07-04T12:42:45.559Z,2.60
2018-07-04T12:43:45.565Z,2.90
2018-07-04T12:44:45.502Z,2.50
2018-07-04T12:45:45.445Z,2.80
2018-07-04T12:46:45.402Z,2.60
2018-07-04T12:47:45.358Z,2.60
2018-07-04T12:48:45.322Z,2.50
2018-07-04T12:49:45.376Z,2.50
2018-07-04T12:50:45.244Z,2.20
2018-07-04T12:51:45.227Z,3.40
2018-07-04T12:52:45.172Z,3.00
2018-07-04T12:53:45.125Z,2.60
2018-07-04T12:54:45.268Z,2.90
2018-07-04T12:55:45.049Z,2.60
2018-07-04T12:56:45.013Z,2.70
2018-07-04T12:57:44.970Z,2.60
2018-07-04T12:58:44.934Z,2.30
2018-07-04T12:59:44.917Z,2.30
2018-07-04T13:00:44.859Z,2.50
2018-07-04T13:01:44.814Z,2.60
2018-07-04T13:02:44.775Z,2.80
2018-07-04T13:03:44.736Z,2.40
2018-07-04T13:04:44.718Z,2.70
2018-07-04T13:05:44.659Z,2.30
2018-07-04T13:06:44.622Z,2.70
2018-07-04T13:07:44.580Z,2.40
2018-07-04T13:08:44.541Z,2.80
2018-07-04T13:09:44.531Z,2.90
2018-07-04T13:10:44.468Z,2.70
2018-07-04T13:11:44.429Z,2.40
2018-07-04T13:12:44.387Z,2.60
2018-07-04T13:13:44.345Z,2.20
2018-07-04T13:14:44.347Z,2.00
2018-07-04T13:15:44.271Z,2.20
2018-07-04T13:16:44.231Z,2.00
2018-07-04T13:17:44.190Z,2.00